Time;durP1;ratioP1;P1;durP2;ratioP2;P2;SDS_P1;SDS_P2;PMS_P1;PMS_P2;Temp;Humidity;BMP_temperature;BMP_pressure;BME280_temperature;BME280_humidity;BME280_pressure;Samples;Min_cycle;Max_cycle;Signal;HPM_P1;HPM_P2
2021/12/07 00:01:05;;;;;;;42.77;23.83;;;;;;;;;;5028667;28;20453;-77
2021/12/07 00:03:32;;;;;;;44.97;25.43;;;;;;;;;;5024116;28;20473;-76
2021/12/07 00:05:58;;;;;;;46.63;24.70;;;;;;;;;;5028608;28;20966;-77
2021/12/07 00:08:27;;;;;;;48.70;26.43;;;;;;;;;;5026924;28;20477;-77
2021/12/07 00:10:54;;;;;;;44.77;24.97;;;;;;;;;;5028063;28;20552;-76
2021/12/07 00:13:21;;;;;;;41.87;25.27;;;;;;;;;;5026828;28;20476;-77
2021/12/07 00:15:47;;;;;;;42.53;23.90;;;;;;;;;;5027788;28;20493;-78
2021/12/07 00:18:14;;;;;;;48.70;26.67;;;;;;;;;;5025865;28;20534;-77
2021/12/07 00:20:40;;;;;;;41.53;26.27;;;;;;;;;;5027464;28;20499;-77
2021/12/07 00:23:07;;;;;;;51.50;26.47;;;;;;;;;;5026277;28;21071;-77
2021/12/07 00:25:36;;;;;;;46.47;24.40;;;;;;;;;;5028535;28;20445;-75
2021/12/07 00:28:03;;;;;;;45.87;26.80;;;;;;;;;;5026120;28;20492;-77
2021/12/07 00:30:32;;;;;;;44.27;23.80;;;;;;;;;;5026199;28;20464;-76
2021/12/07 00:33:10;;;;;;;45.97;25.23;;;;;;;;;;5026676;28;20488;-77
2021/12/07 00:35:37;;;;;;;51.43;26.27;;;;;;;;;;5027132;28;20485;-77
2021/12/07 00:38:04;;;;;;;50.67;24.80;;;;;;;;;;5024992;28;20480;-74
2021/12/07 00:40:31;;;;;;;43.83;25.60;;;;;;;;;;5026557;28;20464;-77
2021/12/07 00:42:58;;;;;;;52.17;25.60;;;;;;;;;;5025469;28;20484;-77
2021/12/07 00:45:25;;;;;;;47.47;25.03;;;;;;;;;;5023761;28;20541;-77
2021/12/07 00:47:53;;;;;;;44.40;26.53;;;;;;;;;;5026822;28;20485;-77
2021/12/07 00:50:20;;;;;;;46.83;24.10;;;;;;;;;;5025196;28;20477;-77
2021/12/07 00:52:46;;;;;;;45.83;25.40;;;;;;;;;;5026034;28;20506;-76
2021/12/07 00:55:15;;;;;;;49.17;26.80;;;;;;;;;;5025011;28;20453;-77
2021/12/07 00:57:41;;;;;;;44.73;25.43;;;;;;;;;;5026538;28;20481;-77
2021/12/07 01:00:11;;;;;;;48.40;28.20;;;;;;;;;;5027016;28;20527;-77
2021/12/07 01:02:37;;;;;;;53.97;27.30;;;;;;;;;;5026012;28;20480;-77
2021/12/07 01:05:11;;;;;;;48.73;24.80;;;;;;;;;;5024576;28;20449;-77
2021/12/07 01:07:55;;;;;;;49.03;25.40;;;;;;;;;;5025108;28;20480;-77
2021/12/07 01:26:48;;;;;;;41.83;23.03;;;;;;;;;;5029610;28;20514;-77
2021/12/07 01:29:16;;;;;;;45.30;24.90;;;;;;;;;;5029803;28;21031;-77
2021/12/07 01:31:52;;;;;;;40.53;24.17;;;;;;;;;;5028919;28;20495;-74
2021/12/07 01:34:40;;;;;;;46.73;25.13;;;;;;;;;;5028919;28;20460;-78
2021/12/07 01:37:16;;;;;;;43.63;24.70;;;;;;;;;;5030241;28;20488;-77
2021/12/07 01:40:07;;;;;;;42.10;23.70;;;;;;;;;;5030977;28;20585;-75
2021/12/07 01:43:13;;;;;;;40.80;25.73;;;;;;;;;;5031568;28;20488;-77
2021/12/07 01:51:19;;;;;;;44.90;24.80;;;;;;;;;;5031562;28;20463;-77
2021/12/07 02:01:57;;;;;;;43.93;22.73;;;;;;;;;;5027129;28;20484;-77
2021/12/07 02:04:24;;;;;;;40.43;24.70;;;;;;;;;;5029048;28;21162;-77
2021/12/07 02:06:51;;;;;;;44.83;27.30;;;;;;;;;;5029534;28;20526;-77
2021/12/07 02:09:17;;;;;;;41.97;24.13;;;;;;;;;;5030858;28;20468;-77
2021/12/07 02:11:48;;;;;;;39.13;22.40;;;;;;;;;;5027926;28;20488;-76
2021/12/07 02:14:17;;;;;;;39.10;23.03;;;;;;;;;;5061731;23;21019;-82
2021/12/07 02:16:44;;;;;;;39.27;23.80;;;;;;;;;;5068089;28;20531;-82
2021/12/07 02:19:11;;;;;;;37.53;23.50;;;;;;;;;;5068359;28;20812;-83
2021/12/07 02:21:38;;;;;;;41.50;24.90;;;;;;;;;;5067203;28;20548;-82
2021/12/07 02:24:05;;;;;;;44.27;24.67;;;;;;;;;;5066684;28;20541;-82
2021/12/07 02:26:31;;;;;;;37.13;21.60;;;;;;;;;;5068285;28;20476;-83
2021/12/07 02:28:57;;;;;;;42.13;23.90;;;;;;;;;;5068090;28;20463;-82
2021/12/07 02:31:24;;;;;;;46.60;23.90;;;;;;;;;;5065566;28;20456;-82
2021/12/07 02:33:51;;;;;;;47.90;24.60;;;;;;;;;;5065917;28;20479;-82
2021/12/07 02:36:17;;;;;;;42.87;23.00;;;;;;;;;;5066984;28;20486;-82
2021/12/07 02:38:44;;;;;;;49.23;22.17;;;;;;;;;;5068048;28;20557;-82
2021/12/07 02:41:11;;;;;;;39.30;23.40;;;;;;;;;;5069026;28;20531;-82
2021/12/07 02:43:37;;;;;;;45.40;23.33;;;;;;;;;;5070966;28;20468;-83
2021/12/07 02:46:04;;;;;;;44.60;22.60;;;;;;;;;;5065416;28;20484;-81
2021/12/07 02:48:30;;;;;;;41.03;22.87;;;;;;;;;;5057188;28;20475;-81
2021/12/07 02:50:56;;;;;;;42.57;23.17;;;;;;;;;;5064246;28;20460;-82
2021/12/07 02:53:25;;;;;;;48.37;25.13;;;;;;;;;;5059433;28;20495;-81
2021/12/07 02:55:53;;;;;;;44.77;23.83;;;;;;;;;;5059792;28;20831;-81
2021/12/07 02:58:20;;;;;;;45.97;23.90;;;;;;;;;;5058693;28;20478;-81
2021/12/07 03:00:52;;;;;;;42.77;23.40;;;;;;;;;;5054525;28;20460;-82
2021/12/07 03:03:18;;;;;;;47.50;24.43;;;;;;;;;;5059914;28;20483;-82
2021/12/07 03:05:52;;;;;;;43.27;22.50;;;;;;;;;;5061709;28;21028;-82
2021/12/07 03:27:26;;;;;;;49.40;24.30;;;;;;;;;;5053658;28;20482;-82
2021/12/07 03:29:53;;;;;;;43.97;23.33;;;;;;;;;;5056720;28;20471;-82
2021/12/07 03:32:19;;;;;;;45.03;22.70;;;;;;;;;;5048071;28;20491;-80
2021/12/07 03:34:45;;;;;;;41.73;22.33;;;;;;;;;;5059534;28;20468;-80
2021/12/07 03:37:12;;;;;;;52.07;26.13;;;;;;;;;;5054227;28;21013;-82
2021/12/07 03:39:38;;;;;;;49.07;25.97;;;;;;;;;;5057307;28;20452;-80
2021/12/07 03:42:04;;;;;;;44.03;25.17;;;;;;;;;;5055762;28;20483;-80
2021/12/07 03:44:33;;;;;;;50.00;25.57;;;;;;;;;;5058596;28;20478;-83
2021/12/07 03:46:59;;;;;;;56.57;25.40;;;;;;;;;;5055347;28;20475;-81
2021/12/07 03:49:25;;;;;;;51.43;24.00;;;;;;;;;;5055907;28;20467;-82
2021/12/07 03:51:52;;;;;;;52.40;23.97;;;;;;;;;;5053489;28;20888;-81
2021/12/07 03:54:18;;;;;;;51.47;25.33;;;;;;;;;;5057621;28;20476;-82
2021/12/07 03:56:44;;;;;;;52.03;25.23;;;;;;;;;;5055051;28;20492;-79
2021/12/07 03:59:10;;;;;;;53.57;25.40;;;;;;;;;;5059145;28;20452;-82
2021/12/07 04:01:38;;;;;;;47.17;24.70;;;;;;;;;;5054099;28;20492;-83
2021/12/07 04:04:04;;;;;;;46.57;26.63;;;;;;;;;;5056607;28;20479;-82
2021/12/07 04:06:32;;;;;;;54.77;24.50;;;;;;;;;;5057224;28;20487;-81
2021/12/07 04:08:58;;;;;;;54.90;27.47;;;;;;;;;;5057267;28;20462;-80
2021/12/07 04:11:24;;;;;;;46.13;23.50;;;;;;;;;;5054872;28;20529;-81
2021/12/07 04:13:50;;;;;;;46.73;25.23;;;;;;;;;;5057915;28;20525;-81
2021/12/07 04:16:18;;;;;;;56.53;27.27;;;;;;;;;;5057460;28;20478;-81
2021/12/07 04:18:45;;;;;;;44.73;24.10;;;;;;;;;;5056328;28;20517;-82
2021/12/07 04:21:12;;;;;;;41.03;23.50;;;;;;;;;;5057758;28;20960;-82
2021/12/07 04:23:38;;;;;;;52.77;27.20;;;;;;;;;;5056423;28;20483;-80
2021/12/07 04:26:06;;;;;;;55.63;27.23;;;;;;;;;;5052017;28;20972;-81
2021/12/07 04:28:32;;;;;;;56.23;27.27;;;;;;;;;;5052790;28;20837;-80
2021/12/07 04:30:59;;;;;;;48.77;24.47;;;;;;;;;;5058176;28;20517;-81
2021/12/07 04:33:29;;;;;;;48.77;25.80;;;;;;;;;;5056910;28;20582;-81
2021/12/07 04:35:56;;;;;;;53.90;27.03;;;;;;;;;;5058663;28;20514;-80
2021/12/07 04:38:23;;;;;;;44.70;26.00;;;;;;;;;;5055451;28;21089;-82
2021/12/07 04:40:49;;;;;;;54.23;26.00;;;;;;;;;;5058002;28;21043;-81
2021/12/07 04:43:16;;;;;;;50.13;25.10;;;;;;;;;;5054895;28;20487;-80
2021/12/07 04:45:55;;;;;;;48.53;27.20;;;;;;;;;;5056077;28;20459;-79
2021/12/07 04:59:14;;;;;;;55.20;27.13;;;;;;;;;;5014012;28;20451;-82
2021/12/07 05:01:41;;;;;;;51.93;24.77;;;;;;;;;;5056250;28;20484;-81
2021/12/07 05:04:12;;;;;;;50.07;25.30;;;;;;;;;;5056345;28;20470;-81
2021/12/07 05:06:46;;;;;;;51.90;24.03;;;;;;;;;;5057788;28;20477;-82
2021/12/07 05:09:31;;;;;;;50.70;26.50;;;;;;;;;;5059225;28;20454;-81
2021/12/07 05:12:19;;;;;;;43.67;25.20;;;;;;;;;;5057598;28;20546;-82
2021/12/07 05:14:46;;;;;;;48.80;25.70;;;;;;;;;;5057817;28;20492;-81
2021/12/07 05:17:21;;;;;;;46.57;24.07;;;;;;;;;;5057248;28;20858;-80
2021/12/07 05:25:39;;;;;;;52.20;26.90;;;;;;;;;;5058584;28;20474;-81
2021/12/07 05:39:02;;;;;;;47.33;24.13;;;;;;;;;;5058118;28;20438;-81
2021/12/07 05:41:29;;;;;;;45.50;25.00;;;;;;;;;;5056759;28;20486;-83
2021/12/07 05:43:55;;;;;;;48.43;27.70;;;;;;;;;;5056085;28;21114;-82
2021/12/07 05:46:22;;;;;;;48.73;24.90;;;;;;;;;;5059094;28;21171;-81
2021/12/07 05:48:48;;;;;;;49.83;26.73;;;;;;;;;;5054943;28;20456;-81
2021/12/07 05:51:15;;;;;;;49.40;25.40;;;;;;;;;;5059116;28;20451;-81
2021/12/07 05:53:41;;;;;;;50.50;27.33;;;;;;;;;;5057906;28;20529;-82
2021/12/07 05:56:08;;;;;;;57.57;25.70;;;;;;;;;;5057602;28;20462;-80
2021/12/07 05:58:35;;;;;;;50.90;25.87;;;;;;;;;;5057404;28;20482;-80
2021/12/07 06:01:01;;;;;;;53.53;26.93;;;;;;;;;;5053754;28;20526;-80
2021/12/07 06:03:28;;;;;;;50.47;27.27;;;;;;;;;;5054169;28;21012;-81
2021/12/07 06:05:55;;;;;;;54.07;26.83;;;;;;;;;;5059976;28;20451;-81
2021/12/07 06:08:21;;;;;;;55.03;26.33;;;;;;;;;;5063755;28;20877;-81
2021/12/07 06:10:48;;;;;;;53.53;26.33;;;;;;;;;;5058521;28;20459;-81
2021/12/07 06:13:15;;;;;;;51.60;26.47;;;;;;;;;;5060468;28;20488;-82
2021/12/07 06:15:44;;;;;;;53.00;28.33;;;;;;;;;;5061916;28;20486;-82
2021/12/07 06:18:11;;;;;;;59.10;27.90;;;;;;;;;;5055400;28;20537;-80
2021/12/07 06:20:40;;;;;;;54.27;25.40;;;;;;;;;;5058883;28;20468;-83
2021/12/07 06:23:07;;;;;;;61.20;26.20;;;;;;;;;;5060971;28;20517;-81
2021/12/07 06:25:33;;;;;;;58.73;27.97;;;;;;;;;;5061888;28;20467;-80
2021/12/07 06:27:59;;;;;;;48.37;26.43;;;;;;;;;;5061341;28;20475;-82
2021/12/07 06:30:27;;;;;;;56.50;28.83;;;;;;;;;;5058574;28;20471;-82
2021/12/07 06:32:53;;;;;;;51.37;26.53;;;;;;;;;;5055872;28;20480;-80
2021/12/07 06:35:19;;;;;;;51.77;26.67;;;;;;;;;;5052748;28;20479;-82
2021/12/07 06:37:46;;;;;;;50.27;26.90;;;;;;;;;;5057446;28;20487;-83
2021/12/07 06:40:12;;;;;;;51.80;26.47;;;;;;;;;;5062713;28;20467;-83
2021/12/07 06:42:39;;;;;;;47.63;25.80;;;;;;;;;;5052733;28;20475;-82
2021/12/07 06:45:06;;;;;;;48.77;27.30;;;;;;;;;;5055846;28;20487;-81
2021/12/07 06:47:33;;;;;;;50.97;27.20;;;;;;;;;;5059109;28;21027;-83
2021/12/07 06:50:00;;;;;;;50.50;26.20;;;;;;;;;;5066797;28;20957;-82
2021/12/07 06:52:26;;;;;;;62.83;27.43;;;;;;;;;;5059947;28;20480;-81
2021/12/07 06:54:52;;;;;;;46.83;26.87;;;;;;;;;;5066793;28;20494;-82
2021/12/07 06:57:18;;;;;;;50.00;26.20;;;;;;;;;;5062183;28;20532;-82
2021/12/07 06:59:46;;;;;;;48.97;27.00;;;;;;;;;;5067807;28;20470;-83
2021/12/07 07:02:12;;;;;;;50.63;26.07;;;;;;;;;;5065499;28;20501;-82
2021/12/07 07:04:39;;;;;;;61.20;31.50;;;;;;;;;;5060567;28;20911;-83
2021/12/07 07:07:06;;;;;;;49.00;25.30;;;;;;;;;;5064563;28;21080;-83
2021/12/07 07:09:32;;;;;;;50.50;27.90;;;;;;;;;;5065946;28;20443;-82
2021/12/07 07:11:58;;;;;;;53.97;26.50;;;;;;;;;;5064375;28;20551;-83
2021/12/07 07:14:24;;;;;;;51.60;25.90;;;;;;;;;;5064335;28;20486;-84
2021/12/07 07:16:51;;;;;;;50.17;25.90;;;;;;;;;;5064390;28;20480;-82
2021/12/07 07:19:17;;;;;;;57.60;29.73;;;;;;;;;;5065252;28;20941;-81
2021/12/07 07:21:44;;;;;;;45.30;25.03;;;;;;;;;;5066312;28;20475;-81
2021/12/07 07:24:11;;;;;;;44.00;24.90;;;;;;;;;;5066919;28;20536;-83
2021/12/07 07:26:37;;;;;;;50.80;26.27;;;;;;;;;;5063690;28;20483;-83
2021/12/07 07:29:03;;;;;;;48.90;24.03;;;;;;;;;;5066227;28;20452;-81
2021/12/07 07:31:30;;;;;;;52.97;26.30;;;;;;;;;;5058738;28;20488;-81
2021/12/07 07:33:56;;;;;;;57.20;25.77;;;;;;;;;;5067694;28;20467;-80
2021/12/07 07:36:22;;;;;;;49.60;27.00;;;;;;;;;;5059930;28;20582;-81
2021/12/07 07:38:50;;;;;;;53.13;26.60;;;;;;;;;;5060847;28;20486;-81
2021/12/07 07:41:16;;;;;;;50.90;27.37;;;;;;;;;;5056660;28;20460;-82
2021/12/07 07:43:42;;;;;;;45.80;25.90;;;;;;;;;;5060818;28;20551;-80
2021/12/07 07:46:08;;;;;;;52.80;26.77;;;;;;;;;;5061522;28;20447;-81
2021/12/07 07:48:35;;;;;;;46.77;25.17;;;;;;;;;;5059319;28;20505;-80
2021/12/07 07:51:01;;;;;;;46.53;25.40;;;;;;;;;;5062019;28;20497;-82
2021/12/07 07:53:27;;;;;;;46.70;24.90;;;;;;;;;;5058932;28;20480;-82
2021/12/07 07:55:55;;;;;;;49.53;26.60;;;;;;;;;;5060948;28;20463;-80
2021/12/07 07:58:21;;;;;;;48.73;25.63;;;;;;;;;;5059106;28;20533;-81
2021/12/07 08:00:48;;;;;;;49.47;25.77;;;;;;;;;;5056298;28;20897;-81
2021/12/07 08:03:14;;;;;;;47.13;22.87;;;;;;;;;;5056539;28;20898;-82
2021/12/07 08:05:40;;;;;;;56.77;28.03;;;;;;;;;;5061373;28;20466;-81
2021/12/07 08:08:06;;;;;;;46.90;24.13;;;;;;;;;;5054579;28;20476;-82
2021/12/07 08:10:33;;;;;;;51.00;27.33;;;;;;;;;;5061473;28;20541;-83
2021/12/07 08:13:02;;;;;;;47.20;27.30;;;;;;;;;;5060482;28;20529;-82
2021/12/07 08:15:29;;;;;;;44.40;25.80;;;;;;;;;;5086414;22;20448;-77
2021/12/07 08:17:55;;;;;;;47.57;25.00;;;;;;;;;;5047337;28;20471;-78
2021/12/07 08:20:22;;;;;;;47.23;25.47;;;;;;;;;;5045244;28;20467;-79
2021/12/07 08:22:48;;;;;;;45.90;27.00;;;;;;;;;;5046542;28;20529;-78
2021/12/07 08:25:15;;;;;;;43.33;25.03;;;;;;;;;;5046741;28;20475;-78
2021/12/07 08:27:41;;;;;;;43.30;25.83;;;;;;;;;;5046123;28;20479;-79
2021/12/07 08:30:10;;;;;;;44.57;24.17;;;;;;;;;;5047537;28;20518;-79
2021/12/07 08:32:39;;;;;;;42.90;24.13;;;;;;;;;;5046217;28;20506;-78
2021/12/07 08:35:06;;;;;;;38.57;24.10;;;;;;;;;;5048599;28;20476;-79
2021/12/07 08:37:32;;;;;;;45.20;25.60;;;;;;;;;;5047853;28;20471;-79
2021/12/07 08:39:58;;;;;;;44.60;24.30;;;;;;;;;;5048626;28;20996;-79
2021/12/07 08:42:24;;;;;;;45.10;24.97;;;;;;;;;;5042382;28;20846;-78
2021/12/07 08:44:50;;;;;;;47.83;25.00;;;;;;;;;;5048837;28;21141;-78
2021/12/07 08:47:18;;;;;;;52.73;27.00;;;;;;;;;;5047208;28;20480;-78
2021/12/07 08:49:44;;;;;;;49.37;26.33;;;;;;;;;;5047163;28;20505;-79
2021/12/07 08:52:10;;;;;;;53.17;26.77;;;;;;;;;;5046071;28;20529;-78
2021/12/07 08:59:38;;;;;;;41.23;23.80;;;;;;;;;;5049570;28;20481;-79
2021/12/07 09:00:10;;;;;;;52.93;27.50;;;;;;;;;;5039902;28;20454;-79
2021/12/07 09:02:38;;;;;;;44.97;25.57;;;;;;;;;;5041077;28;20483;-79
2021/12/07 09:05:04;;;;;;;54.50;25.80;;;;;;;;;;5046532;28;20456;-78
2021/12/07 09:07:30;;;;;;;43.50;25.23;;;;;;;;;;5045387;28;21009;-78
2021/12/07 09:09:57;;;;;;;48.23;26.17;;;;;;;;;;5047496;28;20470;-78
2021/12/07 09:12:23;;;;;;;48.33;28.07;;;;;;;;;;5047122;28;20480;-78
2021/12/07 09:14:53;;;;;;;51.27;23.50;;;;;;;;;;5046320;28;20464;-79
2021/12/07 09:17:19;;;;;;;50.13;26.10;;;;;;;;;;5047259;28;20507;-79
2021/12/07 09:19:46;;;;;;;47.13;25.03;;;;;;;;;;5046779;28;20542;-78
2021/12/07 09:22:13;;;;;;;49.40;28.00;;;;;;;;;;5045712;28;20484;-78
2021/12/07 09:24:39;;;;;;;53.00;26.30;;;;;;;;;;5048333;28;21563;-78
2021/12/07 09:27:06;;;;;;;44.33;26.80;;;;;;;;;;5045298;28;20480;-79
2021/12/07 09:29:33;;;;;;;53.27;26.77;;;;;;;;;;5045434;28;20456;-78
2021/12/07 09:32:00;;;;;;;52.47;28.23;;;;;;;;;;5049524;28;20486;-79
2021/12/07 09:34:26;;;;;;;49.57;28.13;;;;;;;;;;5051800;28;20460;-78
2021/12/07 09:36:54;;;;;;;46.27;27.60;;;;;;;;;;5051683;28;20552;-79
2021/12/07 09:39:20;;;;;;;48.40;25.43;;;;;;;;;;5050836;28;20479;-78
2021/12/07 09:41:47;;;;;;;51.83;26.63;;;;;;;;;;5049108;28;20475;-79
2021/12/07 09:44:13;;;;;;;46.80;25.40;;;;;;;;;;5053260;28;20560;-78
2021/12/07 09:46:41;;;;;;;55.37;27.60;;;;;;;;;;5052001;28;20988;-78
2021/12/07 09:49:08;;;;;;;47.30;26.37;;;;;;;;;;5051403;28;20448;-78
2021/12/07 09:51:34;;;;;;;52.50;28.60;;;;;;;;;;5052636;28;21007;-79
2021/12/07 09:54:03;;;;;;;58.97;29.60;;;;;;;;;;5049992;28;20459;-78
2021/12/07 09:56:29;;;;;;;49.67;27.00;;;;;;;;;;5049082;28;20480;-78
2021/12/07 09:58:57;;;;;;;61.27;28.97;;;;;;;;;;5050947;28;20483;-78
2021/12/07 10:01:24;;;;;;;49.43;29.90;;;;;;;;;;5050854;28;20513;-78
2021/12/07 10:03:51;;;;;;;53.53;28.30;;;;;;;;;;5047379;28;20457;-78
2021/12/07 10:06:18;;;;;;;54.87;30.23;;;;;;;;;;5049718;28;20554;-79
2021/12/07 10:08:45;;;;;;;46.80;26.80;;;;;;;;;;5051025;28;20467;-78
2021/12/07 10:11:13;;;;;;;51.97;26.40;;;;;;;;;;5048301;28;20498;-78
2021/12/07 10:13:41;;;;;;;50.50;27.47;;;;;;;;;;5051595;28;20459;-78
2021/12/07 10:16:08;;;;;;;52.13;26.87;;;;;;;;;;5050160;28;20858;-79
2021/12/07 10:18:36;;;;;;;52.47;26.60;;;;;;;;;;5051431;28;20547;-79
2021/12/07 10:21:04;;;;;;;51.60;28.40;;;;;;;;;;5047066;28;20962;-79
2021/12/07 10:23:33;;;;;;;49.33;25.13;;;;;;;;;;5049945;28;20570;-79
2021/12/07 10:26:01;;;;;;;50.53;26.30;;;;;;;;;;5048501;28;20487;-79
2021/12/07 10:28:31;;;;;;;46.83;25.57;;;;;;;;;;5047946;28;20478;-79
2021/12/07 10:31:01;;;;;;;43.97;23.70;;;;;;;;;;5051681;28;20459;-79
2021/12/07 10:33:31;;;;;;;43.27;25.07;;;;;;;;;;5048632;28;20471;-79
2021/12/07 10:36:06;;;;;;;46.83;24.67;;;;;;;;;;5051165;28;20490;-79
2021/12/07 10:38:32;;;;;;;42.73;23.80;;;;;;;;;;5046430;28;20892;-79
2021/12/07 10:40:59;;;;;;;50.10;25.53;;;;;;;;;;5052087;28;20444;-78
2021/12/07 10:43:46;;;;;;;50.87;27.37;;;;;;;;;;5047822;28;20523;-79
2021/12/07 10:46:25;;;;;;;53.97;26.87;;;;;;;;;;5050447;28;20517;-79
2021/12/07 10:48:51;;;;;;;44.43;25.07;;;;;;;;;;5050150;28;20488;-79
2021/12/07 10:51:17;;;;;;;55.03;26.40;;;;;;;;;;5048264;28;20469;-78
2021/12/07 10:53:52;;;;;;;41.40;23.67;;;;;;;;;;5048876;28;20460;-77
2021/12/07 10:56:29;;;;;;;47.03;24.07;;;;;;;;;;5046385;28;20943;-79
2021/12/07 10:58:59;;;;;;;48.10;24.30;;;;;;;;;;5047002;28;20479;-79
2021/12/07 11:01:33;;;;;;;46.30;23.70;;;;;;;;;;5048680;28;20457;-79
2021/12/07 11:04:14;;;;;;;46.13;23.23;;;;;;;;;;5052128;28;20933;-79
2021/12/07 11:06:55;;;;;;;50.80;24.30;;;;;;;;;;5050079;28;20480;-79
2021/12/07 11:09:22;;;;;;;57.23;25.40;;;;;;;;;;5048859;28;20547;-79
2021/12/07 11:11:48;;;;;;;46.83;26.47;;;;;;;;;;5046784;28;20491;-78
2021/12/07 11:14:16;;;;;;;49.30;24.20;;;;;;;;;;5051131;28;20486;-78
2021/12/07 11:16:43;;;;;;;53.00;27.07;;;;;;;;;;5048267;28;20491;-75
2021/12/07 11:19:20;;;;;;;50.67;24.47;;;;;;;;;;5049093;28;20529;-78
2021/12/07 11:21:47;;;;;;;51.53;24.47;;;;;;;;;;5048258;28;20476;-79
2021/12/07 11:24:14;;;;;;;49.70;24.17;;;;;;;;;;5048707;28;20782;-79
2021/12/07 11:29:42;;;;;;;40.13;21.63;;;;;;;;;;5050856;28;20446;-79
2021/12/07 11:32:09;;;;;;;40.77;21.37;;;;;;;;;;5048478;28;20482;-77
2021/12/07 11:34:39;;;;;;;39.30;21.30;;;;;;;;;;5049969;28;20517;-79
2021/12/07 11:37:07;;;;;;;45.67;21.10;;;;;;;;;;5049283;28;20479;-79
2021/12/07 11:39:36;;;;;;;39.77;21.60;;;;;;;;;;5049433;28;20549;-79
2021/12/07 11:42:04;;;;;;;43.10;22.20;;;;;;;;;;5048362;28;20538;-79
2021/12/07 11:44:32;;;;;;;43.33;24.20;;;;;;;;;;5051681;28;20468;-79
2021/12/07 11:46:59;;;;;;;42.10;22.73;;;;;;;;;;5049206;28;21236;-79
2021/12/07 11:49:26;;;;;;;44.77;22.67;;;;;;;;;;5050348;28;20452;-79
2021/12/07 11:51:54;;;;;;;47.40;21.60;;;;;;;;;;5050788;28;20476;-79
2021/12/07 11:54:22;;;;;;;44.13;24.20;;;;;;;;;;5049677;28;21127;-79
2021/12/07 11:56:48;;;;;;;44.77;22.37;;;;;;;;;;5046282;28;20541;-79
2021/12/07 11:59:15;;;;;;;41.73;21.70;;;;;;;;;;5050365;28;20484;-79
2021/12/07 12:01:43;;;;;;;43.93;22.67;;;;;;;;;;5049347;28;20479;-79
2021/12/07 12:04:09;;;;;;;38.57;20.53;;;;;;;;;;5049484;28;20525;-78
2021/12/07 12:06:36;;;;;;;41.57;21.93;;;;;;;;;;5048095;28;20495;-79
2021/12/07 12:09:02;;;;;;;46.00;21.07;;;;;;;;;;5049376;28;20559;-79
2021/12/07 12:11:44;;;;;;;39.70;20.90;;;;;;;;;;5046811;28;20582;-79
2021/12/07 12:14:16;;;;;;;53.03;21.10;;;;;;;;;;5047844;28;20468;-79
2021/12/07 12:16:54;;;;;;;42.87;21.37;;;;;;;;;;5048613;28;20549;-75
2021/12/07 12:19:23;;;;;;;41.77;22.27;;;;;;;;;;5049428;28;20553;-79
2021/12/07 12:21:51;;;;;;;46.73;23.03;;;;;;;;;;5048670;28;20484;-79
2021/12/07 12:24:20;;;;;;;41.87;21.33;;;;;;;;;;5048298;28;20969;-79
2021/12/07 12:26:49;;;;;;;42.53;22.43;;;;;;;;;;5047354;28;20538;-79
2021/12/07 12:29:18;;;;;;;38.87;19.83;;;;;;;;;;5048462;28;20452;-80
2021/12/07 12:31:51;;;;;;;45.60;20.07;;;;;;;;;;5047002;28;20479;-78
2021/12/07 12:34:19;;;;;;;42.23;21.37;;;;;;;;;;5048732;28;20521;-79
2021/12/07 12:37:01;;;;;;;44.23;21.97;;;;;;;;;;5049490;28;20509;-79
2021/12/07 12:39:40;;;;;;;45.13;21.23;;;;;;;;;;5048159;28;20506;-79
2021/12/07 12:42:06;;;;;;;39.80;22.30;;;;;;;;;;5046886;28;20989;-79
2021/12/07 12:44:34;;;;;;;41.53;21.87;;;;;;;;;;5049902;28;20509;-79
2021/12/07 12:47:02;;;;;;;38.57;22.50;;;;;;;;;;5048271;28;20487;-79
2021/12/07 12:49:37;;;;;;;45.17;20.60;;;;;;;;;;5049272;28;20924;-79
2021/12/07 12:52:04;;;;;;;49.20;23.10;;;;;;;;;;5047252;28;20930;-78
2021/12/07 12:54:38;;;;;;;42.93;21.40;;;;;;;;;;5050312;28;20439;-79
2021/12/07 12:57:08;;;;;;;39.90;21.07;;;;;;;;;;5048721;28;20475;-79
2021/12/07 12:59:37;;;;;;;45.40;22.83;;;;;;;;;;5049719;28;20980;-79
2021/12/07 13:02:04;;;;;;;41.90;21.80;;;;;;;;;;5047637;28;21020;-79
2021/12/07 13:04:31;;;;;;;40.27;20.90;;;;;;;;;;5049984;28;20461;-79
2021/12/07 13:07:23;;;;;;;44.00;19.90;;;;;;;;;;5049790;28;20480;-79
2021/12/07 13:09:53;;;;;;;53.27;22.37;;;;;;;;;;5051224;28;20456;-79
2021/12/07 13:12:20;;;;;;;35.87;20.00;;;;;;;;;;5047892;28;20479;-79
2021/12/07 13:14:54;;;;;;;38.00;20.33;;;;;;;;;;5048735;28;20451;-80
2021/12/07 13:17:23;;;;;;;34.40;18.87;;;;;;;;;;5048275;28;20598;-79
2021/12/07 13:20:08;;;;;;;44.00;20.60;;;;;;;;;;5046431;28;20487;-79
2021/12/07 13:22:35;;;;;;;36.43;20.00;;;;;;;;;;5046282;28;20475;-79
2021/12/07 13:25:05;;;;;;;41.50;20.50;;;;;;;;;;5050670;28;20452;-79
2021/12/07 13:27:31;;;;;;;38.00;19.90;;;;;;;;;;5049535;28;20475;-79
2021/12/07 13:29:57;;;;;;;44.07;21.07;;;;;;;;;;5049638;28;21041;-79
2021/12/07 13:32:25;;;;;;;35.30;19.00;;;;;;;;;;5047326;28;20471;-79
2021/12/07 13:35:00;;;;;;;43.40;20.53;;;;;;;;;;5047915;28;20523;-79
2021/12/07 13:37:43;;;;;;;39.23;19.33;;;;;;;;;;5046737;28;21003;-78
2021/12/07 13:40:17;;;;;;;43.40;21.07;;;;;;;;;;5045176;28;20569;-79
2021/12/07 13:42:46;;;;;;;54.07;24.00;;;;;;;;;;5050181;28;20469;-79
2021/12/07 13:45:16;;;;;;;39.70;21.30;;;;;;;;;;5049139;28;20468;-78
2021/12/07 13:47:46;;;;;;;39.67;21.53;;;;;;;;;;5048811;28;20483;-77
2021/12/07 13:50:13;;;;;;;44.33;23.20;;;;;;;;;;5049654;28;20459;-79
2021/12/07 13:52:40;;;;;;;43.00;22.10;;;;;;;;;;5048528;28;21039;-79
2021/12/07 13:55:09;;;;;;;42.90;20.90;;;;;;;;;;5049852;28;20440;-79
2021/12/07 13:57:36;;;;;;;46.07;23.20;;;;;;;;;;5048078;28;20483;-79
2021/12/07 14:00:06;;;;;;;43.80;24.57;;;;;;;;;;5049246;28;20499;-77
2021/12/07 14:02:33;;;;;;;47.20;24.00;;;;;;;;;;5048393;28;20536;-80
2021/12/07 14:05:05;;;;;;;41.30;22.63;;;;;;;;;;5049635;28;20562;-79
2021/12/07 14:07:31;;;;;;;42.13;20.87;;;;;;;;;;5047790;28;20529;-79
2021/12/07 14:10:03;;;;;;;46.23;23.10;;;;;;;;;;5049993;28;20953;-79
2021/12/07 14:12:29;;;;;;;41.07;21.57;;;;;;;;;;5046530;28;20866;-78
2021/12/07 14:15:04;;;;;;;46.40;21.30;;;;;;;;;;5047129;28;20502;-79
2021/12/07 14:19:58;;;;;;;37.20;19.33;;;;;;;;;;5055575;28;20477;-79
2021/12/07 14:22:26;;;;;;;46.83;22.10;;;;;;;;;;5059016;28;20481;-78
2021/12/07 14:24:52;;;;;;;37.83;20.10;;;;;;;;;;5060712;28;20448;-78
2021/12/07 14:27:19;;;;;;;32.17;19.13;;;;;;;;;;5059514;28;20822;-79
2021/12/07 14:29:45;;;;;;;41.50;21.60;;;;;;;;;;5056582;28;20456;-77
2021/12/07 14:32:11;;;;;;;33.70;19.60;;;;;;;;;;5054635;28;20572;-78
2021/12/07 14:34:37;;;;;;;36.73;20.43;;;;;;;;;;5058975;28;20455;-78
2021/12/07 14:37:05;;;;;;;45.87;21.37;;;;;;;;;;5057615;28;20488;-78
2021/12/07 14:39:34;;;;;;;42.73;22.00;;;;;;;;;;5059171;28;20490;-78
2021/12/07 14:42:01;;;;;;;38.17;20.70;;;;;;;;;;5057515;28;20479;-79
2021/12/07 14:44:28;;;;;;;43.10;21.07;;;;;;;;;;5055041;28;21355;-79
2021/12/07 14:46:56;;;;;;;37.57;20.37;;;;;;;;;;5056606;28;20495;-79
2021/12/07 14:49:23;;;;;;;38.83;20.20;;;;;;;;;;5056938;28;21039;-78
2021/12/07 14:51:49;;;;;;;39.77;20.57;;;;;;;;;;5057135;28;21016;-78
2021/12/07 14:54:17;;;;;;;35.90;21.70;;;;;;;;;;5057317;28;20459;-79
2021/12/07 14:56:45;;;;;;;40.13;22.10;;;;;;;;;;5056897;28;20528;-77
2021/12/07 14:59:12;;;;;;;39.80;21.70;;;;;;;;;;5057345;28;20459;-78
2021/12/07 15:01:40;;;;;;;39.47;20.67;;;;;;;;;;5053374;28;20532;-78
2021/12/07 15:04:07;;;;;;;38.43;22.00;;;;;;;;;;5057307;28;20960;-78
2021/12/07 15:06:34;;;;;;;33.47;20.80;;;;;;;;;;5057392;28;20545;-78
2021/12/07 15:09:02;;;;;;;36.90;20.90;;;;;;;;;;5054497;28;20459;-78
2021/12/07 15:11:28;;;;;;;37.90;20.67;;;;;;;;;;5056511;28;20572;-79
2021/12/07 15:13:56;;;;;;;35.63;20.80;;;;;;;;;;5058250;28;20451;-78
2021/12/07 15:16:22;;;;;;;39.90;21.03;;;;;;;;;;5057102;28;20513;-78
2021/12/07 15:18:49;;;;;;;42.13;20.40;;;;;;;;;;5058973;28;20466;-78
2021/12/07 15:21:17;;;;;;;36.63;20.90;;;;;;;;;;5056430;28;20475;-78
2021/12/07 15:23:48;;;;;;;34.80;21.33;;;;;;;;;;5059386;28;21020;-78
2021/12/07 15:26:15;;;;;;;40.43;20.10;;;;;;;;;;5052853;28;20522;-79
2021/12/07 15:28:52;;;;;;;34.10;20.13;;;;;;;;;;5057948;28;20470;-79
2021/12/07 15:31:20;;;;;;;37.73;20.80;;;;;;;;;;5057845;28;20448;-79
2021/12/07 15:33:46;;;;;;;38.33;21.00;;;;;;;;;;5060439;28;20451;-78
2021/12/07 15:36:15;;;;;;;38.03;19.77;;;;;;;;;;5056319;28;20459;-78
2021/12/07 15:38:41;;;;;;;32.43;19.47;;;;;;;;;;5057004;28;20916;-78
2021/12/07 15:41:08;;;;;;;37.63;21.30;;;;;;;;;;5055781;28;20487;-79
2021/12/07 15:43:34;;;;;;;37.40;20.70;;;;;;;;;;5057883;28;20454;-79
2021/12/07 15:46:00;;;;;;;31.20;18.83;;;;;;;;;;5057028;28;20460;-79
2021/12/07 15:48:30;;;;;;;39.17;19.50;;;;;;;;;;5055560;28;20500;-78